Pepinster, Belgium
Current Conditions -  °F | °C
As of 2:20 PM on Tuesday 21 Oct 2014 (Local Time) from EBLG Reporting Station
Rain Showers Rain Showers  
Wind Chill: 12°   Ceiling: 1300
Heat Index: 12°   Visibility: 2.8mi
Dew Point: 11°   Wind: 24mph
Humidity: 94%   Direction: 210°SSW
Pressure: 29.59"   Gusts: NA
Location:  50.57°N, 5.8°E
Report Text: EBLG 211220Z 21021KT 4500 SHRA FEW010 BKN013 12/11 Q1002 TEMPO 22020G40KT 3000 SHRA BKN010
Loading
Personal Weather Stations






























Interactive Weather Map
Tropical Storm Tracking
New forecast layout! Learn more

10-Day Weather Forecast

Advertisements
Track Severe Weather on mobile